sensor_id;sensor_type;location;lat;lon;timestamp;P1;durP1;ratioP1;P2;durP2;ratioP2
55670;SDS011;41551;47.500;8.408;2022-08-19T00:00:07;23.45;;;15.18;;
55670;SDS011;41551;47.500;8.408;2022-08-19T00:02:39;21.98;;;14.90;;
55670;SDS011;41551;47.500;8.408;2022-08-19T00:05:06;23.42;;;14.90;;
55670;SDS011;41551;47.500;8.408;2022-08-19T00:07:33;27.25;;;16.35;;
55670;SDS011;41551;47.500;8.408;2022-08-19T00:10:00;22.88;;;15.38;;
55670;SDS011;41551;47.500;8.408;2022-08-19T00:12:28;27.10;;;16.90;;
55670;SDS011;41551;47.500;8.408;2022-08-19T00:14:55;25.08;;;15.90;;
55670;SDS011;41551;47.500;8.408;2022-08-19T00:17:21;27.02;;;16.75;;
55670;SDS011;41551;47.500;8.408;2022-08-19T00:19:48;30.38;;;17.70;;
55670;SDS011;41551;47.500;8.408;2022-08-19T00:22:15;26.67;;;17.30;;
55670;SDS011;41551;47.500;8.408;2022-08-19T00:24:43;29.20;;;17.70;;
55670;SDS011;41551;47.500;8.408;2022-08-19T00:27:10;28.05;;;17.42;;
55670;SDS011;41551;47.500;8.408;2022-08-19T00:29:38;27.60;;;17.15;;
55670;SDS011;41551;47.500;8.408;2022-08-19T00:32:06;27.10;;;16.63;;
55670;SDS011;41551;47.500;8.408;2022-08-19T00:34:33;27.83;;;18.17;;
55670;SDS011;41551;47.500;8.408;2022-08-19T00:37:00;27.77;;;16.98;;
55670;SDS011;41551;47.500;8.408;2022-08-19T00:39:27;28.75;;;17.42;;
55670;SDS011;41551;47.500;8.408;2022-08-19T00:41:53;27.67;;;16.45;;
55670;SDS011;41551;47.500;8.408;2022-08-19T00:44:21;28.25;;;15.63;;
55670;SDS011;41551;47.500;8.408;2022-08-19T00:46:51;24.10;;;15.98;;
55670;SDS011;41551;47.500;8.408;2022-08-19T00:49:20;25.77;;;16.33;;
55670;SDS011;41551;47.500;8.408;2022-08-19T00:51:53;25.33;;;16.63;;
55670;SDS011;41551;47.500;8.408;2022-08-19T00:54:25;22.75;;;15.80;;
55670;SDS011;41551;47.500;8.408;2022-08-19T00:56:52;21.45;;;15.20;;
55670;SDS011;41551;47.500;8.408;2022-08-19T00:59:19;23.85;;;15.20;;
55670;SDS011;41551;47.500;8.408;2022-08-19T01:01:47;21.98;;;15.05;;
55670;SDS011;41551;47.500;8.408;2022-08-19T01:04:15;23.67;;;15.40;;
55670;SDS011;41551;47.500;8.408;2022-08-19T01:06:42;25.83;;;15.43;;
55670;SDS011;41551;47.500;8.408;2022-08-19T01:09:09;22.52;;;15.07;;
55670;SDS011;41551;47.500;8.408;2022-08-19T01:11:38;23.15;;;15.55;;
55670;SDS011;41551;47.500;8.408;2022-08-19T01:14:08;24.65;;;16.02;;
55670;SDS011;41551;47.500;8.408;2022-08-19T01:16:36;24.30;;;15.38;;
55670;SDS011;41551;47.500;8.408;2022-08-19T01:19:06;20.90;;;14.55;;
55670;SDS011;41551;47.500;8.408;2022-08-19T01:21:41;22.92;;;15.10;;
55670;SDS011;41551;47.500;8.408;2022-08-19T01:24:14;25.77;;;16.90;;
55670;SDS011;41551;47.500;8.408;2022-08-19T01:26:42;23.30;;;14.65;;
55670;SDS011;41551;47.500;8.408;2022-08-19T01:29:10;22.65;;;15.45;;
55670;SDS011;41551;47.500;8.408;2022-08-19T01:31:37;23.25;;;15.38;;
55670;SDS011;41551;47.500;8.408;2022-08-19T01:34:05;24.98;;;15.50;;
55670;SDS011;41551;47.500;8.408;2022-08-19T01:36:33;23.70;;;15.05;;
55670;SDS011;41551;47.500;8.408;2022-08-19T01:39:07;26.17;;;15.73;;
55670;SDS011;41551;47.500;8.408;2022-08-19T01:41:39;24.75;;;16.08;;
55670;SDS011;41551;47.500;8.408;2022-08-19T01:44:07;24.80;;;14.65;;
55670;SDS011;41551;47.500;8.408;2022-08-19T01:46:35;23.02;;;15.30;;
55670;SDS011;41551;47.500;8.408;2022-08-19T01:49:04;21.30;;;14.02;;
55670;SDS011;41551;47.500;8.408;2022-08-19T01:51:31;22.75;;;15.23;;
55670;SDS011;41551;47.500;8.408;2022-08-19T01:53:58;22.33;;;14.65;;
55670;SDS011;41551;47.500;8.408;2022-08-19T01:56:25;23.27;;;14.98;;
55670;SDS011;41551;47.500;8.408;2022-08-19T01:58:53;23.60;;;14.65;;
55670;SDS011;41551;47.500;8.408;2022-08-19T02:01:24;21.48;;;14.48;;
55670;SDS011;41551;47.500;8.408;2022-08-19T02:03:50;21.17;;;13.85;;
55670;SDS011;41551;47.500;8.408;2022-08-19T02:06:19;19.33;;;12.93;;
55670;SDS011;41551;47.500;8.408;2022-08-19T02:08:46;20.80;;;13.85;;
55670;SDS011;41551;47.500;8.408;2022-08-19T02:11:18;19.42;;;12.65;;
55670;SDS011;41551;47.500;8.408;2022-08-19T02:13:47;16.42;;;11.23;;
55670;SDS011;41551;47.500;8.408;2022-08-19T02:16:16;18.95;;;12.57;;
55670;SDS011;41551;47.500;8.408;2022-08-19T02:18:44;20.77;;;13.73;;
55670;SDS011;41551;47.500;8.408;2022-08-19T02:21:12;18.73;;;13.18;;
55670;SDS011;41551;47.500;8.408;2022-08-19T02:23:39;18.45;;;12.60;;
55670;SDS011;41551;47.500;8.408;2022-08-19T02:26:06;18.33;;;12.23;;
55670;SDS011;41551;47.500;8.408;2022-08-19T02:28:32;19.80;;;12.60;;
55670;SDS011;41551;47.500;8.408;2022-08-19T02:30:59;18.60;;;13.65;;
55670;SDS011;41551;47.500;8.408;2022-08-19T02:33:29;19.30;;;12.75;;
55670;SDS011;41551;47.500;8.408;2022-08-19T02:35:56;17.58;;;12.75;;
55670;SDS011;41551;47.500;8.408;2022-08-19T02:38:22;17.88;;;13.00;;
55670;SDS011;41551;47.500;8.408;2022-08-19T02:40:51;19.35;;;13.38;;
55670;SDS011;41551;47.500;8.408;2022-08-19T02:43:19;19.02;;;13.07;;
55670;SDS011;41551;47.500;8.408;2022-08-19T02:45:48;17.10;;;12.23;;
55670;SDS011;41551;47.500;8.408;2022-08-19T02:48:16;17.48;;;11.95;;
55670;SDS011;41551;47.500;8.408;2022-08-19T02:50:46;15.38;;;11.27;;
55670;SDS011;41551;47.500;8.408;2022-08-19T02:53:15;15.00;;;11.43;;
55670;SDS011;41551;47.500;8.408;2022-08-19T02:55:43;17.50;;;13.02;;
55670;SDS011;41551;47.500;8.408;2022-08-19T02:58:10;17.50;;;13.35;;
55670;SDS011;41551;47.500;8.408;2022-08-19T03:00:40;17.25;;;13.48;;
55670;SDS011;41551;47.500;8.408;2022-08-19T03:03:08;21.13;;;14.15;;
55670;SDS011;41551;47.500;8.408;2022-08-19T03:05:35;19.15;;;14.55;;
55670;SDS011;41551;47.500;8.408;2022-08-19T03:08:04;25.45;;;15.95;;
55670;SDS011;41551;47.500;8.408;2022-08-19T03:10:30;22.00;;;14.60;;
55670;SDS011;41551;47.500;8.408;2022-08-19T03:12:57;23.55;;;14.60;;
55670;SDS011;41551;47.500;8.408;2022-08-19T03:15:24;23.50;;;15.32;;
55670;SDS011;41551;47.500;8.408;2022-08-19T03:17:51;23.08;;;15.32;;
55670;SDS011;41551;47.500;8.408;2022-08-19T03:20:18;21.83;;;15.98;;
55670;SDS011;41551;47.500;8.408;2022-08-19T03:22:44;24.33;;;16.15;;
55670;SDS011;41551;47.500;8.408;2022-08-19T03:25:12;25.30;;;16.77;;
55670;SDS011;41551;47.500;8.408;2022-08-19T03:27:39;25.13;;;16.98;;
55670;SDS011;41551;47.500;8.408;2022-08-19T03:30:06;26.33;;;16.23;;
55670;SDS011;41551;47.500;8.408;2022-08-19T03:32:33;23.63;;;16.30;;
55670;SDS011;41551;47.500;8.408;2022-08-19T03:35:00;25.35;;;16.70;;
55670;SDS011;41551;47.500;8.408;2022-08-19T03:37:27;26.65;;;17.00;;
55670;SDS011;41551;47.500;8.408;2022-08-19T03:39:54;24.77;;;16.05;;
55670;SDS011;41551;47.500;8.408;2022-08-19T03:42:22;26.83;;;16.50;;
55670;SDS011;41551;47.500;8.408;2022-08-19T03:44:49;26.80;;;17.63;;
55670;SDS011;41551;47.500;8.408;2022-08-19T03:47:17;25.27;;;16.52;;
55670;SDS011;41551;47.500;8.408;2022-08-19T03:49:44;26.27;;;17.05;;
55670;SDS011;41551;47.500;8.408;2022-08-19T03:52:11;25.13;;;16.45;;
55670;SDS011;41551;47.500;8.408;2022-08-19T03:54:38;26.17;;;17.40;;
55670;SDS011;41551;47.500;8.408;2022-08-19T03:57:05;26.13;;;16.67;;
55670;SDS011;41551;47.500;8.408;2022-08-19T03:59:35;26.70;;;16.17;;
55670;SDS011;41551;47.500;8.408;2022-08-19T04:02:05;26.25;;;15.15;;
55670;SDS011;41551;47.500;8.408;2022-08-19T04:04:37;22.00;;;14.50;;
55670;SDS011;41551;47.500;8.408;2022-08-19T04:07:05;24.83;;;15.20;;
55670;SDS011;41551;47.500;8.408;2022-08-19T04:09:32;22.13;;;14.50;;
55670;SDS011;41551;47.500;8.408;2022-08-19T04:11:59;24.80;;;15.55;;
55670;SDS011;41551;47.500;8.408;2022-08-19T04:14:27;22.83;;;15.48;;
55670;SDS011;41551;47.500;8.408;2022-08-19T04:16:56;23.05;;;14.85;;
55670;SDS011;41551;47.500;8.408;2022-08-19T04:19:24;23.50;;;15.18;;
55670;SDS011;41551;47.500;8.408;2022-08-19T04:21:52;20.42;;;14.63;;
55670;SDS011;41551;47.500;8.408;2022-08-19T04:24:20;22.73;;;14.73;;
55670;SDS011;41551;47.500;8.408;2022-08-19T04:26:48;20.45;;;13.68;;
55670;SDS011;41551;47.500;8.408;2022-08-19T04:29:17;19.17;;;13.50;;
55670;SDS011;41551;47.500;8.408;2022-08-19T04:31:46;18.52;;;12.23;;
55670;SDS011;41551;47.500;8.408;2022-08-19T04:34:15;19.27;;;13.60;;
55670;SDS011;41551;47.500;8.408;2022-08-19T04:36:43;20.67;;;13.32;;
55670;SDS011;41551;47.500;8.408;2022-08-19T04:39:12;18.73;;;13.60;;
55670;SDS011;41551;47.500;8.408;2022-08-19T04:41:40;19.60;;;13.07;;
55670;SDS011;41551;47.500;8.408;2022-08-19T04:44:25;18.38;;;12.80;;
55670;SDS011;41551;47.500;8.408;2022-08-19T04:46:55;17.13;;;11.93;;
55670;SDS011;41551;47.500;8.408;2022-08-19T04:49:24;15.93;;;11.65;;
55670;SDS011;41551;47.500;8.408;2022-08-19T04:51:51;18.02;;;11.40;;
55670;SDS011;41551;47.500;8.408;2022-08-19T04:54:20;15.45;;;11.23;;
55670;SDS011;41551;47.500;8.408;2022-08-19T04:56:48;16.13;;;11.45;;
55670;SDS011;41551;47.500;8.408;2022-08-19T04:59:17;14.68;;;12.05;;
55670;SDS011;41551;47.500;8.408;2022-08-19T05:01:45;15.45;;;11.68;;
55670;SDS011;41551;47.500;8.408;2022-08-19T05:04:15;16.88;;;12.07;;
55670;SDS011;41551;47.500;8.408;2022-08-19T05:06:45;14.32;;;11.10;;
55670;SDS011;41551;47.500;8.408;2022-08-19T05:09:12;15.75;;;11.48;;
55670;SDS011;41551;47.500;8.408;2022-08-19T05:11:40;17.27;;;12.10;;
55670;SDS011;41551;47.500;8.408;2022-08-19T05:14:07;19.17;;;12.48;;
55670;SDS011;41551;47.500;8.408;2022-08-19T05:16:34;18.10;;;12.23;;
55670;SDS011;41551;47.500;8.408;2022-08-19T05:19:01;16.08;;;12.27;;
55670;SDS011;41551;47.500;8.408;2022-08-19T05:21:47;14.52;;;10.77;;
55670;SDS011;41551;47.500;8.408;2022-08-19T05:24:32;16.73;;;11.97;;
55670;SDS011;41551;47.500;8.408;2022-08-19T05:26:59;16.75;;;11.45;;
55670;SDS011;41551;47.500;8.408;2022-08-19T05:29:27;14.35;;;11.15;;
55670;SDS011;41551;47.500;8.408;2022-08-19T05:31:56;15.93;;;11.50;;
55670;SDS011;41551;47.500;8.408;2022-08-19T05:34:24;16.77;;;11.25;;
55670;SDS011;41551;47.500;8.408;2022-08-19T05:36:54;15.20;;;10.55;;
55670;SDS011;41551;47.500;8.408;2022-08-19T05:39:23;15.77;;;11.38;;
55670;SDS011;41551;47.500;8.408;2022-08-19T05:41:51;14.13;;;10.75;;
55670;SDS011;41551;47.500;8.408;2022-08-19T05:44:22;12.90;;;10.43;;
55670;SDS011;41551;47.500;8.408;2022-08-19T05:46:49;15.65;;;11.63;;
55670;SDS011;41551;47.500;8.408;2022-08-19T05:49:18;15.95;;;11.18;;
55670;SDS011;41551;47.500;8.408;2022-08-19T05:51:46;16.55;;;11.38;;
55670;SDS011;41551;47.500;8.408;2022-08-19T05:54:14;15.10;;;11.48;;
55670;SDS011;41551;47.500;8.408;2022-08-19T05:56:42;15.18;;;10.77;;
55670;SDS011;41551;47.500;8.408;2022-08-19T05:59:09;17.67;;;11.30;;
55670;SDS011;41551;47.500;8.408;2022-08-19T06:01:37;17.13;;;12.07;;
55670;SDS011;41551;47.500;8.408;2022-08-19T06:04:05;16.70;;;11.20;;
55670;SDS011;41551;47.500;8.408;2022-08-19T06:06:32;18.08;;;11.60;;
55670;SDS011;41551;47.500;8.408;2022-08-19T06:09:00;14.63;;;11.05;;
55670;SDS011;41551;47.500;8.408;2022-08-19T06:11:33;13.25;;;10.27;;
55670;SDS011;41551;47.500;8.408;2022-08-19T06:14:02;15.80;;;11.00;;
55670;SDS011;41551;47.500;8.408;2022-08-19T06:16:30;15.90;;;11.15;;
55670;SDS011;41551;47.500;8.408;2022-08-19T06:18:59;17.17;;;11.73;;
55670;SDS011;41551;47.500;8.408;2022-08-19T06:21:31;15.90;;;11.75;;
55670;SDS011;41551;47.500;8.408;2022-08-19T06:23:58;16.10;;;10.60;;
55670;SDS011;41551;47.500;8.408;2022-08-19T06:26:25;13.88;;;10.77;;
55670;SDS011;41551;47.500;8.408;2022-08-19T06:28:54;14.48;;;10.70;;
55670;SDS011;41551;47.500;8.408;2022-08-19T06:31:21;14.60;;;10.95;;
55670;SDS011;41551;47.500;8.408;2022-08-19T06:33:49;13.40;;;10.00;;
55670;SDS011;41551;47.500;8.408;2022-08-19T06:36:17;14.38;;;9.75;;
55670;SDS011;41551;47.500;8.408;2022-08-19T06:38:45;14.95;;;10.75;;
55670;SDS011;41551;47.500;8.408;2022-08-19T06:41:12;18.85;;;10.57;;
55670;SDS011;41551;47.500;8.408;2022-08-19T06:43:38;15.85;;;11.43;;
55670;SDS011;41551;47.500;8.408;2022-08-19T06:46:10;13.02;;;9.90;;
55670;SDS011;41551;47.500;8.408;2022-08-19T06:48:39;16.17;;;10.40;;
55670;SDS011;41551;47.500;8.408;2022-08-19T06:51:06;13.57;;;9.90;;
55670;SDS011;41551;47.500;8.408;2022-08-19T06:53:33;17.35;;;10.55;;
55670;SDS011;41551;47.500;8.408;2022-08-19T06:56:00;13.68;;;10.73;;
55670;SDS011;41551;47.500;8.408;2022-08-19T06:58:27;14.82;;;10.35;;
55670;SDS011;41551;47.500;8.408;2022-08-19T07:00:57;11.98;;;9.65;;
55670;SDS011;41551;47.500;8.408;2022-08-19T07:03:27;13.05;;;9.40;;
55670;SDS011;41551;47.500;8.408;2022-08-19T07:05:56;11.88;;;9.55;;
55670;SDS011;41551;47.500;8.408;2022-08-19T07:08:24;11.90;;;9.02;;
55670;SDS011;41551;47.500;8.408;2022-08-19T07:10:52;12.68;;;10.05;;
55670;SDS011;41551;47.500;8.408;2022-08-19T07:13:19;11.05;;;9.30;;
55670;SDS011;41551;47.500;8.408;2022-08-19T07:15:47;12.70;;;9.73;;
55670;SDS011;41551;47.500;8.408;2022-08-19T07:18:15;12.65;;;10.00;;
55670;SDS011;41551;47.500;8.408;2022-08-19T07:20:44;13.23;;;9.98;;
55670;SDS011;41551;47.500;8.408;2022-08-19T07:23:10;14.93;;;9.70;;
55670;SDS011;41551;47.500;8.408;2022-08-19T07:25:38;14.52;;;11.75;;
55670;SDS011;41551;47.500;8.408;2022-08-19T07:28:05;12.80;;;10.35;;
55670;SDS011;41551;47.500;8.408;2022-08-19T07:30:35;12.45;;;10.30;;
55670;SDS011;41551;47.500;8.408;2022-08-19T07:33:03;13.13;;;9.75;;
55670;SDS011;41551;47.500;8.408;2022-08-19T07:35:30;13.60;;;10.48;;
55670;SDS011;41551;47.500;8.408;2022-08-19T07:40:29;14.73;;;10.95;;
55670;SDS011;41551;47.500;8.408;2022-08-19T07:42:56;12.75;;;10.13;;
55670;SDS011;41551;47.500;8.408;2022-08-19T07:45:23;14.65;;;10.00;;
55670;SDS011;41551;47.500;8.408;2022-08-19T07:47:50;16.60;;;11.27;;
55670;SDS011;41551;47.500;8.408;2022-08-19T07:50:18;15.52;;;11.38;;
55670;SDS011;41551;47.500;8.408;2022-08-19T07:52:46;16.48;;;12.15;;
55670;SDS011;41551;47.500;8.408;2022-08-19T07:55:17;13.40;;;10.93;;
55670;SDS011;41551;47.500;8.408;2022-08-19T07:57:48;13.57;;;11.27;;
55670;SDS011;41551;47.500;8.408;2022-08-19T08:00:17;16.67;;;11.45;;
55670;SDS011;41551;47.500;8.408;2022-08-19T08:02:43;14.45;;;10.95;;
55670;SDS011;41551;47.500;8.408;2022-08-19T08:05:10;15.43;;;12.20;;
55670;SDS011;41551;47.500;8.408;2022-08-19T08:07:54;14.40;;;11.18;;
55670;SDS011;41551;47.500;8.408;2022-08-19T08:10:40;16.25;;;11.23;;
55670;SDS011;41551;47.500;8.408;2022-08-19T08:13:07;17.75;;;12.77;;
55670;SDS011;41551;47.500;8.408;2022-08-19T08:15:34;15.55;;;11.88;;
55670;SDS011;41551;47.500;8.408;2022-08-19T08:18:03;14.63;;;11.88;;
55670;SDS011;41551;47.500;8.408;2022-08-19T08:20:31;17.70;;;12.65;;
55670;SDS011;41551;47.500;8.408;2022-08-19T08:22:58;19.02;;;13.10;;
55670;SDS011;41551;47.500;8.408;2022-08-19T08:25:43;18.55;;;13.55;;
55670;SDS011;41551;47.500;8.408;2022-08-19T08:28:10;19.23;;;13.18;;
55670;SDS011;41551;47.500;8.408;2022-08-19T08:30:37;16.15;;;12.80;;
55670;SDS011;41551;47.500;8.408;2022-08-19T08:33:06;19.67;;;13.55;;
55670;SDS011;41551;47.500;8.408;2022-08-19T08:35:33;18.20;;;13.13;;
55670;SDS011;41551;47.500;8.408;2022-08-19T08:38:00;20.23;;;13.85;;
55670;SDS011;41551;47.500;8.408;2022-08-19T08:40:29;28.38;;;14.20;;
55670;SDS011;41551;47.500;8.408;2022-08-19T08:43:06;18.00;;;13.82;;
55670;SDS011;41551;47.500;8.408;2022-08-19T08:45:36;17.30;;;13.50;;
55670;SDS011;41551;47.500;8.408;2022-08-19T08:48:21;21.15;;;14.65;;
55670;SDS011;41551;47.500;8.408;2022-08-19T08:50:51;22.20;;;15.55;;
55670;SDS011;41551;47.500;8.408;2022-08-19T08:53:20;24.00;;;14.27;;
55670;SDS011;41551;47.500;8.408;2022-08-19T08:55:48;21.08;;;13.60;;
55670;SDS011;41551;47.500;8.408;2022-08-19T08:58:18;23.67;;;15.43;;
55670;SDS011;41551;47.500;8.408;2022-08-19T09:00:50;24.58;;;16.00;;
55670;SDS011;41551;47.500;8.408;2022-08-19T09:03:17;22.80;;;15.23;;
55670;SDS011;41551;47.500;8.408;2022-08-19T09:05:48;21.45;;;14.98;;
55670;SDS011;41551;47.500;8.408;2022-08-19T09:08:22;23.25;;;15.50;;
55670;SDS011;41551;47.500;8.408;2022-08-19T09:10:59;21.10;;;14.75;;
55670;SDS011;41551;47.500;8.408;2022-08-19T09:13:33;21.33;;;15.32;;
55670;SDS011;41551;47.500;8.408;2022-08-19T09:16:08;22.17;;;15.95;;
55670;SDS011;41551;47.500;8.408;2022-08-19T09:18:40;21.77;;;16.50;;
55670;SDS011;41551;47.500;8.408;2022-08-19T09:21:08;21.83;;;15.98;;
55670;SDS011;41551;47.500;8.408;2022-08-19T09:23:35;26.27;;;16.42;;
55670;SDS011;41551;47.500;8.408;2022-08-19T09:26:06;23.35;;;17.23;;
55670;SDS011;41551;47.500;8.408;2022-08-19T09:28:36;22.50;;;17.33;;
55670;SDS011;41551;47.500;8.408;2022-08-19T09:31:03;24.55;;;17.42;;
55670;SDS011;41551;47.500;8.408;2022-08-19T09:33:29;26.65;;;18.17;;
55670;SDS011;41551;47.500;8.408;2022-08-19T09:36:04;24.63;;;18.23;;
55670;SDS011;41551;47.500;8.408;2022-08-19T09:38:32;24.70;;;18.02;;
55670;SDS011;41551;47.500;8.408;2022-08-19T09:41:03;25.73;;;17.83;;
55670;SDS011;41551;47.500;8.408;2022-08-19T09:43:31;25.35;;;17.88;;
55670;SDS011;41551;47.500;8.408;2022-08-19T09:46:00;28.40;;;18.60;;
55670;SDS011;41551;47.500;8.408;2022-08-19T09:48:26;28.38;;;19.63;;
55670;SDS011;41551;47.500;8.408;2022-08-19T09:50:54;26.10;;;18.20;;
55670;SDS011;41551;47.500;8.408;2022-08-19T09:53:21;29.27;;;19.25;;
55670;SDS011;41551;47.500;8.408;2022-08-19T09:55:48;27.08;;;17.30;;
55670;SDS011;41551;47.500;8.408;2022-08-19T09:58:15;30.92;;;20.05;;
55670;SDS011;41551;47.500;8.408;2022-08-19T10:00:42;31.75;;;21.45;;
55670;SDS011;41551;47.500;8.408;2022-08-19T10:03:10;50.90;;;30.85;;
55670;SDS011;41551;47.500;8.408;2022-08-19T10:05:37;55.45;;;32.40;;
55670;SDS011;41551;47.500;8.408;2022-08-19T10:08:17;42.33;;;27.63;;
55670;SDS011;41551;47.500;8.408;2022-08-19T10:10:45;36.40;;;23.58;;
55670;SDS011;41551;47.500;8.408;2022-08-19T10:13:15;36.75;;;22.77;;
55670;SDS011;41551;47.500;8.408;2022-08-19T10:15:45;34.40;;;22.23;;
55670;SDS011;41551;47.500;8.408;2022-08-19T10:18:13;38.03;;;23.98;;
55670;SDS011;41551;47.500;8.408;2022-08-19T10:20:41;30.73;;;21.15;;
55670;SDS011;41551;47.500;8.408;2022-08-19T10:23:08;33.47;;;22.70;;
55670;SDS011;41551;47.500;8.408;2022-08-19T10:25:35;33.15;;;21.40;;
55670;SDS011;41551;47.500;8.408;2022-08-19T10:28:02;31.67;;;20.80;;
55670;SDS011;41551;47.500;8.408;2022-08-19T10:30:31;36.38;;;22.83;;
55670;SDS011;41551;47.500;8.408;2022-08-19T10:32:57;32.03;;;19.92;;
55670;SDS011;41551;47.500;8.408;2022-08-19T10:35:25;37.75;;;22.15;;
55670;SDS011;41551;47.500;8.408;2022-08-19T10:37:53;30.30;;;21.13;;
55670;SDS011;41551;47.500;8.408;2022-08-19T10:40:24;28.77;;;19.83;;
55670;SDS011;41551;47.500;8.408;2022-08-19T10:42:51;30.83;;;20.70;;
55670;SDS011;41551;47.500;8.408;2022-08-19T10:45:18;32.53;;;20.30;;
55670;SDS011;41551;47.500;8.408;2022-08-19T10:47:47;30.27;;;20.20;;
55670;SDS011;41551;47.500;8.408;2022-08-19T10:50:13;30.17;;;19.90;;
55670;SDS011;41551;47.500;8.408;2022-08-19T10:53:05;33.25;;;22.20;;
55670;SDS011;41551;47.500;8.408;2022-08-19T10:55:34;33.42;;;22.40;;
55670;SDS011;41551;47.500;8.408;2022-08-19T10:58:19;35.20;;;22.35;;
55670;SDS011;41551;47.500;8.408;2022-08-19T11:00:51;32.38;;;22.45;;
55670;SDS011;41551;47.500;8.408;2022-08-19T11:03:19;34.35;;;21.92;;
55670;SDS011;41551;47.500;8.408;2022-08-19T11:05:46;29.88;;;20.92;;
55670;SDS011;41551;47.500;8.408;2022-08-19T11:08:16;30.55;;;20.23;;
55670;SDS011;41551;47.500;8.408;2022-08-19T11:10:43;27.20;;;20.13;;
55670;SDS011;41551;47.500;8.408;2022-08-19T11:13:09;33.35;;;22.10;;
55670;SDS011;41551;47.500;8.408;2022-08-19T11:15:36;31.20;;;21.65;;
55670;SDS011;41551;47.500;8.408;2022-08-19T11:18:03;29.45;;;20.88;;
55670;SDS011;41551;47.500;8.408;2022-08-19T11:20:30;33.63;;;21.88;;
55670;SDS011;41551;47.500;8.408;2022-08-19T11:22:57;32.83;;;21.75;;
55670;SDS011;41551;47.500;8.408;2022-08-19T11:25:25;32.83;;;22.45;;
55670;SDS011;41551;47.500;8.408;2022-08-19T11:27:52;37.20;;;24.33;;
55670;SDS011;41551;47.500;8.408;2022-08-19T11:30:19;31.98;;;22.08;;
55670;SDS011;41551;47.500;8.408;2022-08-19T11:32:46;34.38;;;23.23;;
55670;SDS011;41551;47.500;8.408;2022-08-19T11:35:12;32.05;;;22.08;;
55670;SDS011;41551;47.500;8.408;2022-08-19T11:37:39;35.53;;;24.45;;
55670;SDS011;41551;47.500;8.408;2022-08-19T11:40:06;36.67;;;22.60;;
55670;SDS011;41551;47.500;8.408;2022-08-19T11:42:35;32.40;;;22.40;;
55670;SDS011;41551;47.500;8.408;2022-08-19T11:45:21;35.78;;;23.15;;
55670;SDS011;41551;47.500;8.408;2022-08-19T11:47:48;39.08;;;25.35;;
55670;SDS011;41551;47.500;8.408;2022-08-19T11:50:15;33.47;;;22.40;;
55670;SDS011;41551;47.500;8.408;2022-08-19T11:52:42;35.22;;;23.20;;
55670;SDS011;41551;47.500;8.408;2022-08-19T11:55:10;36.60;;;23.48;;
55670;SDS011;41551;47.500;8.408;2022-08-19T11:57:38;35.00;;;23.10;;
55670;SDS011;41551;47.500;8.408;2022-08-19T12:00:06;34.85;;;23.67;;
55670;SDS011;41551;47.500;8.408;2022-08-19T12:02:35;33.97;;;23.08;;
55670;SDS011;41551;47.500;8.408;2022-08-19T12:05:01;34.80;;;23.67;;
55670;SDS011;41551;47.500;8.408;2022-08-19T12:07:28;33.92;;;22.70;;
55670;SDS011;41551;47.500;8.408;2022-08-19T12:09:58;40.78;;;24.00;;
55670;SDS011;41551;47.500;8.408;2022-08-19T12:12:24;34.38;;;22.05;;
55670;SDS011;41551;47.500;8.408;2022-08-19T12:14:53;35.80;;;23.25;;
55670;SDS011;41551;47.500;8.408;2022-08-19T12:17:23;30.85;;;21.75;;
55670;SDS011;41551;47.500;8.408;2022-08-19T12:19:52;33.65;;;22.25;;
55670;SDS011;41551;47.500;8.408;2022-08-19T12:22:19;33.92;;;22.23;;
55670;SDS011;41551;47.500;8.408;2022-08-19T12:24:46;32.13;;;22.55;;
55670;SDS011;41551;47.500;8.408;2022-08-19T12:27:15;34.15;;;23.30;;
55670;SDS011;41551;47.500;8.408;2022-08-19T12:29:41;32.00;;;22.75;;
55670;SDS011;41551;47.500;8.408;2022-08-19T12:32:09;34.58;;;22.98;;
55670;SDS011;41551;47.500;8.408;2022-08-19T12:34:36;34.60;;;23.58;;
55670;SDS011;41551;47.500;8.408;2022-08-19T12:37:04;33.78;;;23.45;;
55670;SDS011;41551;47.500;8.408;2022-08-19T12:39:33;29.77;;;21.35;;
55670;SDS011;41551;47.500;8.408;2022-08-19T12:42:01;30.90;;;22.52;;
55670;SDS011;41551;47.500;8.408;2022-08-19T12:44:28;34.00;;;22.88;;
55670;SDS011;41551;47.500;8.408;2022-08-19T12:46:55;29.17;;;21.25;;
55670;SDS011;41551;47.500;8.408;2022-08-19T12:49:24;32.25;;;21.88;;
55670;SDS011;41551;47.500;8.408;2022-08-19T12:51:50;31.90;;;22.58;;
55670;SDS011;41551;47.500;8.408;2022-08-19T12:54:18;27.42;;;20.35;;
55670;SDS011;41551;47.500;8.408;2022-08-19T12:56:45;26.75;;;19.92;;
55670;SDS011;41551;47.500;8.408;2022-08-19T12:59:11;31.00;;;22.02;;
55670;SDS011;41551;47.500;8.408;2022-08-19T13:01:39;31.55;;;21.23;;
55670;SDS011;41551;47.500;8.408;2022-08-19T13:04:06;31.17;;;21.40;;
55670;SDS011;41551;47.500;8.408;2022-08-19T13:06:34;30.17;;;22.48;;
55670;SDS011;41551;47.500;8.408;2022-08-19T13:09:02;30.35;;;21.35;;
55670;SDS011;41551;47.500;8.408;2022-08-19T13:11:29;28.92;;;20.92;;
55670;SDS011;41551;47.500;8.408;2022-08-19T13:13:57;30.58;;;21.77;;
55670;SDS011;41551;47.500;8.408;2022-08-19T13:16:24;32.65;;;21.73;;
55670;SDS011;41551;47.500;8.408;2022-08-19T13:18:52;30.38;;;21.88;;
55670;SDS011;41551;47.500;8.408;2022-08-19T13:21:21;31.63;;;21.02;;
55670;SDS011;41551;47.500;8.408;2022-08-19T13:23:53;30.98;;;20.58;;
55670;SDS011;41551;47.500;8.408;2022-08-19T13:26:20;29.38;;;21.77;;
55670;SDS011;41551;47.500;8.408;2022-08-19T13:28:47;30.48;;;21.15;;
55670;SDS011;41551;47.500;8.408;2022-08-19T13:31:32;30.02;;;22.15;;
55670;SDS011;41551;47.500;8.408;2022-08-19T13:34:18;29.67;;;21.23;;
55670;SDS011;41551;47.500;8.408;2022-08-19T13:36:51;29.85;;;21.23;;
55670;SDS011;41551;47.500;8.408;2022-08-19T13:39:19;27.65;;;20.67;;
55670;SDS011;41551;47.500;8.408;2022-08-19T13:41:48;26.38;;;20.05;;
55670;SDS011;41551;47.500;8.408;2022-08-19T13:44:15;29.90;;;21.80;;
55670;SDS011;41551;47.500;8.408;2022-08-19T13:46:43;28.02;;;21.38;;
55670;SDS011;41551;47.500;8.408;2022-08-19T13:49:10;29.30;;;21.52;;
55670;SDS011;41551;47.500;8.408;2022-08-19T13:51:37;29.35;;;20.77;;
55670;SDS011;41551;47.500;8.408;2022-08-19T13:54:05;27.73;;;19.17;;
55670;SDS011;41551;47.500;8.408;2022-08-19T13:56:35;29.30;;;19.88;;
55670;SDS011;41551;47.500;8.408;2022-08-19T13:59:05;27.25;;;18.58;;
55670;SDS011;41551;47.500;8.408;2022-08-19T14:01:32;25.30;;;18.92;;
55670;SDS011;41551;47.500;8.408;2022-08-19T14:04:00;27.63;;;19.35;;
55670;SDS011;41551;47.500;8.408;2022-08-19T14:06:26;26.75;;;19.02;;
55670;SDS011;41551;47.500;8.408;2022-08-19T14:08:53;27.65;;;19.17;;
55670;SDS011;41551;47.500;8.408;2022-08-19T14:11:20;25.95;;;19.40;;
55670;SDS011;41551;47.500;8.408;2022-08-19T14:13:49;24.90;;;17.38;;
55670;SDS011;41551;47.500;8.408;2022-08-19T14:16:16;28.48;;;18.65;;
55670;SDS011;41551;47.500;8.408;2022-08-19T14:18:43;22.35;;;17.42;;
55670;SDS011;41551;47.500;8.408;2022-08-19T14:21:13;22.95;;;16.90;;
55670;SDS011;41551;47.500;8.408;2022-08-19T14:23:42;24.55;;;16.85;;
55670;SDS011;41551;47.500;8.408;2022-08-19T14:26:10;22.30;;;17.80;;
55670;SDS011;41551;47.500;8.408;2022-08-19T14:28:38;25.95;;;17.92;;
55670;SDS011;41551;47.500;8.408;2022-08-19T14:31:08;25.80;;;18.38;;